Terminal Aerodrome Forecast
Issued by NWS Charleston, WV

Current Version | Previous Version | Graphics & Text | Print | Product List | Glossary On
Versions: 1 2 3 4 5 6 7 8 9 10 11 12 13 14 15 16 17 18 19 20 21 22 23 24 25 26
000
FTUS41 KRLX 262300
TAFEKN
TAF
KEKN 262334Z 2700/2724 00000KT 4SM BR OVC015
     FM270200 VRB03KT 2SM BR BKN005
      TEMPO 2702/2704 -FZDZSN
     FM271400 29004KT 3SM BR OVC015
     FM271700 30008KT 5SM -SHSN OVC022=

USA.gov is the U.S. government's official web portal to all federal, state and local government web resources and services.